Time;durP1;ratioP1;P1;durP2;ratioP2;P2;SDS_P1;SDS_P2;PMS_P1;PMS_P2;Temp;Humidity;BMP_temperature;BMP_pressure;BME280_temperature;BME280_humidity;BME280_pressure;Samples;Min_cycle;Max_cycle;Signal;HPM_P1;HPM_P2
2023/05/20 00:02:05;;;;;;;4.95;2.60;;;;;;;12.44;100.00;102211.16;5315742;28;20107;-69
2023/05/20 00:04:36;;;;;;;9.95;3.05;;;;;;;12.40;100.00;102206.94;5319425;27;20465;-68
2023/05/20 00:07:08;;;;;;;8.25;3.33;;;;;;;12.36;100.00;102201.78;5289236;28;20342;-68
2023/05/20 00:09:39;;;;;;;7.70;2.97;;;;;;;12.33;100.00;102193.06;5265211;28;20020;-68
2023/05/20 00:12:11;;;;;;;8.77;3.03;;;;;;;12.32;100.00;102197.56;5264790;28;20024;-68
2023/05/20 00:14:42;;;;;;;9.20;3.20;;;;;;;12.27;100.00;102190.78;5274373;28;20035;-68
2023/05/20 00:17:13;;;;;;;10.32;3.40;;;;;;;12.26;100.00;102197.94;5263328;28;20379;-68
2023/05/20 00:19:45;;;;;;;7.72;3.22;;;;;;;12.22;100.00;102200.94;5276128;28;20028;-68
2023/05/20 00:22:16;;;;;;;7.68;2.80;;;;;;;12.21;100.00;102202.72;5268193;28;20048;-68
2023/05/20 00:24:48;;;;;;;9.20;3.28;;;;;;;12.17;100.00;102203.88;5267373;28;20023;-68
2023/05/20 00:27:19;;;;;;;7.45;3.47;;;;;;;12.16;100.00;102208.38;5265432;28;20033;-68
2023/05/20 00:29:51;;;;;;;9.13;3.33;;;;;;;12.13;100.00;102216.56;5268974;28;20037;-68
2023/05/20 00:32:23;;;;;;;9.60;3.90;;;;;;;12.10;100.00;102208.75;5264988;28;20086;-68
2023/05/20 00:34:57;;;;;;;9.48;3.45;;;;;;;12.06;100.00;102199.19;5271873;28;20478;-68
2023/05/20 00:37:28;;;;;;;5.93;2.90;;;;;;;12.01;100.00;102195.09;5268479;28;20104;-68
2023/05/20 00:40:00;;;;;;;7.57;2.97;;;;;;;12.00;100.00;102198.69;5277304;28;20127;-68
2023/05/20 00:42:31;;;;;;;10.60;3.38;;;;;;;11.95;100.00;102193.63;5265872;28;20048;-68
2023/05/20 00:45:03;;;;;;;9.30;3.40;;;;;;;11.91;100.00;102190.28;5271354;28;20034;-68
2023/05/20 00:47:37;;;;;;;7.63;3.50;;;;;;;11.91;100.00;102194.78;5272566;28;20036;-68
2023/05/20 00:50:10;;;;;;;10.07;3.70;;;;;;;11.87;100.00;102194.06;5271609;28;20032;-68
2023/05/20 00:52:44;;;;;;;8.18;3.85;;;;;;;11.85;100.00;102192.41;5257642;28;20029;-68
2023/05/20 00:55:15;;;;;;;8.73;3.88;;;;;;;11.83;100.00;102194.31;5274693;28;20039;-68
2023/05/20 00:57:51;;;;;;;8.40;3.50;;;;;;;11.78;100.00;102191.94;5268678;28;20107;-68
2023/05/20 01:00:22;;;;;;;7.88;3.90;;;;;;;11.75;100.00;102187.66;5272019;28;20028;-68
2023/05/20 01:02:55;;;;;;;7.47;3.45;;;;;;;11.70;100.00;102191.56;5266894;28;20517;-68
2023/05/20 01:05:27;;;;;;;11.55;3.90;;;;;;;11.67;100.00;102186.38;5277329;28;20698;-67
2023/05/20 01:07:58;;;;;;;7.78;4.10;;;;;;;11.64;100.00;102186.53;5268657;28;20017;-68
2023/05/20 01:10:31;;;;;;;10.77;4.00;;;;;;;11.62;100.00;102183.09;5264004;28;20552;-68
2023/05/20 01:13:07;;;;;;;11.85;4.18;;;;;;;11.57;100.00;102186.91;5262553;28;20028;-68
2023/05/20 01:15:41;;;;;;;6.95;3.78;;;;;;;11.53;100.00;102180.03;5272004;28;20040;-68
2023/05/20 01:18:17;;;;;;;8.20;3.97;;;;;;;11.50;100.00;102190.03;5272229;28;20031;-68
2023/05/20 01:20:49;;;;;;;11.43;3.90;;;;;;;11.50;100.00;102182.03;5263441;28;20033;-68
2023/05/20 01:23:21;;;;;;;9.77;3.97;;;;;;;11.44;100.00;102177.91;5264565;28;20033;-68
2023/05/20 01:25:52;;;;;;;8.00;3.83;;;;;;;11.43;100.00;102180.66;5273453;28;20505;-70
2023/05/20 01:28:25;;;;;;;11.00;4.05;;;;;;;11.46;100.00;102178.66;5277251;28;20064;-68
2023/05/20 01:31:00;;;;;;;9.43;3.90;;;;;;;11.40;100.00;102184.38;5267211;28;20052;-68
2023/05/20 01:33:35;;;;;;;7.80;4.10;;;;;;;11.37;100.00;102179.19;5269595;28;20032;-68
2023/05/20 01:36:08;;;;;;;9.95;4.40;;;;;;;11.33;100.00;102175.88;5267312;28;20045;-68
2023/05/20 01:38:41;;;;;;;10.57;4.30;;;;;;;11.32;100.00;102167.94;5266443;28;20029;-68
2023/05/20 01:41:13;;;;;;;10.95;4.30;;;;;;;11.30;100.00;102172.50;5273218;28;20033;-68
2023/05/20 01:43:44;;;;;;;7.43;4.40;;;;;;;11.28;100.00;102161.91;5273186;28;20409;-68
2023/05/20 01:46:16;;;;;;;10.15;4.68;;;;;;;11.26;100.00;102169.16;5276979;28;20136;-68
2023/05/20 01:48:47;;;;;;;11.07;4.20;;;;;;;11.22;100.00;102164.94;5272720;28;20024;-68
2023/05/20 01:51:19;;;;;;;13.27;4.30;;;;;;;11.19;100.00;102168.63;5267157;28;20345;-68
2023/05/20 01:53:50;;;;;;;10.32;4.32;;;;;;;11.16;100.00;102165.28;5268215;28;20885;-68
2023/05/20 01:56:21;;;;;;;8.52;4.28;;;;;;;11.15;100.00;102159.06;5282227;28;20043;-68
2023/05/20 01:58:53;;;;;;;8.10;4.35;;;;;;;11.11;100.00;102164.69;5275338;28;20036;-68
2023/05/20 02:01:24;;;;;;;9.88;4.25;;;;;;;11.10;100.00;102160.28;5274039;28;20035;-67
2023/05/20 02:03:56;;;;;;;9.23;4.30;;;;;;;11.05;100.00;102160.56;5284773;28;20065;-68
2023/05/20 02:06:27;;;;;;;9.45;4.78;;;;;;;11.05;100.00;102159.72;5299018;27;20130;-68
2023/05/20 02:08:59;;;;;;;12.98;4.47;;;;;;;11.01;100.00;102161.69;5319767;27;20459;-68
2023/05/20 02:11:30;;;;;;;10.77;4.82;;;;;;;10.98;100.00;102159.19;5314407;28;20501;-68
2023/05/20 02:14:01;;;;;;;7.72;4.40;;;;;;;10.95;100.00;102152.22;5316854;27;20061;-68
2023/05/20 02:16:33;;;;;;;10.57;4.50;;;;;;;10.92;100.00;102157.72;5314833;27;20443;-68
2023/05/20 02:19:04;;;;;;;9.88;4.10;;;;;;;10.89;100.00;102157.03;5318844;27;20444;-68
2023/05/20 02:21:36;;;;;;;9.95;4.70;;;;;;;10.88;100.00;102152.66;5315784;27;20024;-68
2023/05/20 02:24:07;;;;;;;8.73;4.45;;;;;;;10.86;100.00;102157.22;5319144;28;20050;-67
2023/05/20 02:26:39;;;;;;;8.25;4.38;;;;;;;10.86;100.00;102154.56;5308437;28;20020;-67
2023/05/20 02:29:10;;;;;;;8.02;4.60;;;;;;;10.83;100.00;102150.25;5315529;27;20039;-68
2023/05/20 02:31:42;;;;;;;9.27;4.90;;;;;;;10.79;100.00;102141.53;5307979;28;20489;-68
2023/05/20 02:34:16;;;;;;;13.18;4.78;;;;;;;10.80;100.00;102145.09;5316258;28;20054;-68
2023/05/20 02:36:47;;;;;;;9.40;4.90;;;;;;;10.78;100.00;102137.16;5314041;28;20107;-68
2023/05/20 02:39:19;;;;;;;9.57;4.63;;;;;;;10.82;100.00;102145.00;5307922;28;20119;-67
2023/05/20 02:41:51;;;;;;;10.85;4.97;;;;;;;10.75;100.00;102148.00;5312277;28;20349;-68
2023/05/20 02:44:22;;;;;;;7.82;4.90;;;;;;;10.74;100.00;102146.28;5326433;27;20032;-68
2023/05/20 02:46:53;;;;;;;9.05;4.85;;;;;;;10.74;100.00;102146.28;5308121;28;20085;-68
2023/05/20 02:49:25;;;;;;;10.43;5.00;;;;;;;10.69;100.00;102152.84;5310023;28;20023;-68
2023/05/20 02:51:56;;;;;;;10.18;4.65;;;;;;;10.68;100.00;102146.66;5316739;27;20034;-67
2023/05/20 02:54:27;;;;;;;8.93;4.90;;;;;;;10.66;100.00;102148.53;5310415;27;20066;-68
2023/05/20 02:56:59;;;;;;;9.27;5.10;;;;;;;10.73;100.00;102155.25;5303264;28;20069;-67
2023/05/20 02:59:30;;;;;;;10.98;5.28;;;;;;;10.64;100.00;102144.22;5316827;27;20064;-68
2023/05/20 03:02:02;;;;;;;8.90;4.88;;;;;;;10.63;100.00;102151.38;5302107;28;20023;-69
2023/05/20 03:04:37;;;;;;;9.25;5.57;;;;;;;10.60;100.00;102148.88;5303103;28;20028;-68
2023/05/20 03:07:08;;;;;;;9.32;4.80;;;;;;;10.61;100.00;102137.25;5284577;28;20143;-68
2023/05/20 03:09:40;;;;;;;9.18;5.22;;;;;;;10.61;100.00;102139.06;5296379;28;20052;-68
2023/05/20 03:12:11;;;;;;;9.32;5.30;;;;;;;10.60;100.00;102140.84;5290308;28;20047;-68
2023/05/20 03:14:42;;;;;;;10.63;5.57;;;;;;;10.55;100.00;102137.59;5277278;28;20036;-67
2023/05/20 03:17:14;;;;;;;12.40;5.63;;;;;;;10.59;100.00;102144.50;5273423;28;20016;-67
2023/05/20 03:19:45;;;;;;;12.25;5.10;;;;;;;10.60;100.00;102146.19;5277781;28;20035;-67
2023/05/20 03:22:17;;;;;;;13.27;5.82;;;;;;;10.55;100.00;102143.78;5267144;28;20108;-68
2023/05/20 03:24:48;;;;;;;11.60;5.57;;;;;;;10.57;100.00;102136.56;5266145;28;20445;-68
2023/05/20 03:27:20;;;;;;;11.32;5.40;;;;;;;10.59;100.00;102139.16;5267115;28;20115;-67
2023/05/20 03:29:53;;;;;;;8.20;5.20;;;;;;;10.53;100.00;102142.16;5271356;28;20023;-68
2023/05/20 03:32:25;;;;;;;9.03;5.10;;;;;;;10.49;100.00;102143.25;5270546;28;20117;-67
2023/05/20 03:34:57;;;;;;;8.95;5.25;;;;;;;10.45;100.00;102141.72;5276896;28;20028;-68
2023/05/20 03:37:28;;;;;;;9.07;5.30;;;;;;;10.44;100.00;102146.19;5283415;28;20020;-68
2023/05/20 03:39:59;;;;;;;12.52;6.85;;;;;;;10.40;100.00;102148.16;5271560;28;20039;-68
2023/05/20 03:42:33;;;;;;;9.18;5.18;;;;;;;10.37;100.00;102148.34;5275183;28;20054;-68
2023/05/20 03:45:05;;;;;;;9.83;5.40;;;;;;;10.35;100.00;102144.88;5266079;28;20546;-67
2023/05/20 03:47:37;;;;;;;11.07;5.45;;;;;;;10.35;100.00;102138.69;5268333;28;20287;-67
2023/05/20 03:50:08;;;;;;;9.27;5.35;;;;;;;10.40;100.00;102139.31;5276629;28;20048;-68
2023/05/20 03:52:40;;;;;;;10.35;5.75;;;;;;;10.34;100.00;102140.50;5270951;28;20467;-67
2023/05/20 03:55:11;;;;;;;11.07;5.18;;;;;;;10.32;100.00;102142.41;5273067;28;20032;-68
2023/05/20 03:57:43;;;;;;;11.38;5.97;;;;;;;10.32;100.00;102139.72;5274633;28;20038;-68
2023/05/20 04:00:15;;;;;;;10.32;5.68;;;;;;;10.31;100.00;102142.47;5268073;28;20070;-68
2023/05/20 04:02:47;;;;;;;9.60;5.25;;;;;;;10.29;100.00;102137.19;5272185;28;20054;-68
2023/05/20 04:05:18;;;;;;;17.52;6.18;;;;;;;10.31;100.00;102137.13;5272458;28;20059;-66
2023/05/20 04:07:50;;;;;;;9.13;5.50;;;;;;;10.27;100.00;102136.41;5267779;28;20482;-68
2023/05/20 04:10:22;;;;;;;12.05;6.30;;;;;;;10.26;100.00;102142.69;5276926;28;20049;-68
2023/05/20 04:12:54;;;;;;;9.45;5.20;;;;;;;10.26;100.00;102142.69;5279841;28;20032;-68
2023/05/20 04:15:28;;;;;;;10.63;5.57;;;;;;;10.23;100.00;102142.84;5275077;28;20040;-67
2023/05/20 04:18:00;;;;;;;11.05;5.45;;;;;;;10.25;100.00;102145.44;5268866;28;20025;-68
2023/05/20 04:20:32;;;;;;;11.02;5.53;;;;;;;10.24;100.00;102144.59;5258520;28;20035;-68
2023/05/20 04:23:03;;;;;;;12.18;5.65;;;;;;;10.27;100.00;102146.22;5270723;28;20025;-68
2023/05/20 04:25:35;;;;;;;13.88;5.78;;;;;;;10.28;100.00;102150.59;5265525;28;20029;-68
2023/05/20 04:28:06;;;;;;;9.60;6.00;;;;;;;10.29;100.00;102147.00;5264164;28;20041;-67
2023/05/20 04:30:38;;;;;;;10.32;5.95;;;;;;;10.32;100.00;102147.72;5270204;28;20029;-68
2023/05/20 04:33:10;;;;;;;12.65;5.68;;;;;;;10.34;100.00;102155.66;5257015;28;20021;-67
2023/05/20 04:35:41;;;;;;;12.07;5.97;;;;;;;10.35;100.00;102149.34;5268915;28;20364;-68
2023/05/20 04:38:13;;;;;;;11.32;5.32;;;;;;;10.36;100.00;102146.63;5270293;28;20027;-68
2023/05/20 04:40:44;;;;;;;12.13;6.85;;;;;;;10.39;100.00;102145.56;5276610;28;20024;-68
2023/05/20 04:43:16;;;;;;;10.75;5.80;;;;;;;10.42;100.00;102147.22;5268118;28;20021;-67
2023/05/20 04:45:47;;;;;;;9.52;5.78;;;;;;;10.43;100.00;102139.13;5269670;28;20020;-67
2023/05/20 04:48:19;;;;;;;10.13;6.05;;;;;;;10.46;100.00;102143.44;5272022;28;20491;-69
2023/05/20 04:50:53;;;;;;;9.15;5.82;;;;;;;10.49;100.00;102159.25;5270620;28;20515;-68
2023/05/20 04:53:25;;;;;;;;;;;;;;;10.55;100.00;102153.63;5274085;28;20372;-68
2023/05/20 04:55:56;;;;;;;9.60;4.90;;;;;;;10.52;100.00;102149.28;5274367;28;19920;-68
2023/05/20 04:58:28;;;;;;;9.02;5.70;;;;;;;10.56;100.00;102149.97;5263786;28;20459;-68
2023/05/20 05:01:00;;;;;;;11.13;5.60;;;;;;;10.57;100.00;102155.25;5263751;28;20083;-68
2023/05/20 05:03:31;;;;;;;9.45;5.78;;;;;;;10.69;100.00;102147.50;5266786;28;20128;-68
2023/05/20 05:06:05;;;;;;;9.82;6.00;;;;;;;10.67;100.00;102146.72;5284558;28;20149;-68
2023/05/20 05:08:37;;;;;;;11.80;5.72;;;;;;;10.73;100.00;102136.56;5274171;28;20114;-68
2023/05/20 05:11:08;;;;;;;11.82;6.30;;;;;;;10.76;100.00;102141.72;5276340;28;20029;-68
2023/05/20 05:13:39;;;;;;;10.70;5.78;;;;;;;10.78;100.00;102134.50;5273822;28;20028;-68
2023/05/20 05:16:11;;;;;;;11.60;5.40;;;;;;;10.83;100.00;102126.22;5282566;28;20108;-68
2023/05/20 05:18:42;;;;;;;12.65;6.15;;;;;;;10.90;100.00;102127.59;5271078;28;20534;-68
2023/05/20 05:21:13;;;;;;;13.25;5.70;;;;;;;10.91;100.00;102132.00;5278210;28;20044;-68
2023/05/20 05:23:45;;;;;;;9.95;5.65;;;;;;;10.95;100.00;102130.88;5266679;28;20078;-68
2023/05/20 05:26:16;;;;;;;10.43;6.00;;;;;;;11.00;100.00;102127.91;5273519;28;20029;-68
2023/05/20 05:28:47;;;;;;;16.33;6.00;;;;;;;11.05;100.00;102128.53;5264580;28;20155;-68
2023/05/20 05:31:19;;;;;;;12.18;6.05;;;;;;;11.16;100.00;102136.78;5271042;28;20027;-68
2023/05/20 05:33:50;;;;;;;8.02;5.07;;;;;;;11.16;100.00;102131.44;5271593;28;20149;-68
2023/05/20 05:36:24;;;;;;;10.10;5.10;;;;;;;11.18;100.00;102134.03;5269561;28;20540;-68
2023/05/20 05:38:56;;;;;;;10.88;5.38;;;;;;;11.24;100.00;102132.78;5275862;28;20080;-67
2023/05/20 05:41:27;;;;;;;13.38;5.28;;;;;;;11.26;100.00;102128.22;5274587;28;20116;-68
2023/05/20 05:43:59;;;;;;;10.25;5.55;;;;;;;11.33;100.00;102124.22;5268968;28;20021;-68
2023/05/20 05:46:31;;;;;;;8.60;5.05;;;;;;;11.41;100.00;102131.78;5264106;28;20047;-68
2023/05/20 05:49:02;;;;;;;7.47;5.20;;;;;;;11.43;100.00;102127.19;5266083;28;20032;-68
2023/05/20 05:51:34;;;;;;;7.82;5.47;;;;;;;11.48;100.00;102127.81;5270841;28;20094;-68
2023/05/20 05:54:05;;;;;;;10.82;5.72;;;;;;;11.56;100.00;102126.41;5273948;28;20032;-68
2023/05/20 05:56:36;;;;;;;9.18;5.55;;;;;;;11.61;100.00;102127.94;5272590;28;20017;-69
2023/05/20 05:59:08;;;;;;;8.90;5.25;;;;;;;11.65;100.00;102133.00;5272549;28;20087;-68
2023/05/20 06:01:39;;;;;;;15.10;5.38;;;;;;;11.69;100.00;102136.34;5270171;28;20560;-68
2023/05/20 06:04:11;;;;;;;12.38;5.05;;;;;;;11.76;100.00;102138.53;5275318;28;20032;-68
2023/05/20 06:06:42;;;;;;;13.38;5.53;;;;;;;11.80;100.00;102127.69;5290139;28;20105;-67
2023/05/20 06:09:14;;;;;;;13.68;5.30;;;;;;;11.85;100.00;102134.47;5311827;28;20028;-68
2023/05/20 06:11:45;;;;;;;9.77;5.15;;;;;;;11.86;100.00;102138.84;5311181;28;20019;-68
2023/05/20 06:14:16;;;;;;;8.57;4.78;;;;;;;11.94;100.00;102133.91;5302264;28;20072;-68
2023/05/20 06:16:48;;;;;;;10.98;5.60;;;;;;;12.02;100.00;102133.44;5302646;28;20065;-68
2023/05/20 06:19:19;;;;;;;10.07;5.28;;;;;;;12.07;100.00;102122.47;5304972;28;20368;-68
2023/05/20 06:21:50;;;;;;;15.52;5.43;;;;;;;12.16;100.00;102117.41;5309127;28;20027;-68
2023/05/20 06:24:22;;;;;;;9.68;5.22;;;;;;;12.20;100.00;102112.72;5318809;27;20046;-68
2023/05/20 06:26:53;;;;;;;8.82;4.70;;;;;;;12.38;100.00;102112.50;5318030;28;20549;-68
2023/05/20 06:29:24;;;;;;;7.20;5.03;;;;;;;12.35;100.00;102110.88;5304173;28;20019;-68
2023/05/20 06:31:56;;;;;;;9.70;4.75;;;;;;;12.46;100.00;102108.34;5302579;27;20473;-68
2023/05/20 06:34:27;;;;;;;8.50;4.93;;;;;;;12.62;100.00;102108.25;5311550;28;20031;-68
2023/05/20 06:36:59;;;;;;;9.77;4.80;;;;;;;12.68;100.00;102099.81;5312264;28;20062;-68
2023/05/20 06:39:30;;;;;;;12.38;5.38;;;;;;;12.86;100.00;102104.91;5311696;28;20359;-68
2023/05/20 06:42:01;;;;;;;9.63;4.75;;;;;;;12.94;100.00;102103.47;5312241;27;20028;-68
2023/05/20 06:44:33;;;;;;;8.20;4.10;;;;;;;13.05;100.00;102099.19;5320620;27;20505;-68
2023/05/20 06:47:05;;;;;;;8.93;4.68;;;;;;;13.13;100.00;102096.84;5314300;28;20490;-68
2023/05/20 06:49:36;;;;;;;7.80;4.75;;;;;;;13.23;100.00;102092.59;5310419;28;20139;-68
2023/05/20 06:52:07;;;;;;;10.93;4.75;;;;;;;13.31;100.00;102103.69;5288698;28;20470;-68
2023/05/20 06:54:40;;;;;;;10.40;4.60;;;;;;;13.44;100.00;102093.00;5305977;27;20027;-69
2023/05/20 06:57:11;;;;;;;9.07;4.28;;;;;;;13.49;100.00;102085.47;5304966;27;20019;-68
2023/05/20 06:59:43;;;;;;;11.70;4.60;;;;;;;13.63;100.00;102086.34;5311233;28;20032;-68
2023/05/20 07:02:14;;;;;;;7.88;4.18;;;;;;;13.81;100.00;102089.59;5305465;27;20060;-68
2023/05/20 07:04:45;;;;;;;9.60;4.25;;;;;;;13.86;100.00;102085.56;5311640;27;20431;-68
2023/05/20 07:07:17;;;;;;;7.40;3.80;;;;;;;13.97;100.00;102078.63;5281487;27;20048;-68
2023/05/20 07:09:48;;;;;;;8.93;4.88;;;;;;;13.99;100.00;102071.31;5271818;28;20450;-68
2023/05/20 07:12:20;;;;;;;6.28;3.83;;;;;;;14.15;100.00;102081.78;5261997;28;20025;-68
2023/05/20 07:14:51;;;;;;;6.43;3.97;;;;;;;14.37;100.00;102081.97;5277657;28;20390;-69
2023/05/20 07:17:23;;;;;;;8.25;3.60;;;;;;;14.36;100.00;102080.22;5271086;28;20027;-68
2023/05/20 07:19:55;;;;;;;8.40;3.67;;;;;;;14.47;100.00;102077.63;5270181;28;20518;-68
2023/05/20 07:22:26;;;;;;;7.15;3.85;;;;;;;14.60;100.00;102076.78;5262482;28;20100;-68
2023/05/20 07:24:59;;;;;;;7.18;3.78;;;;;;;14.60;100.00;102072.25;5268730;28;20032;-68
2023/05/20 07:27:30;;;;;;;5.97;3.58;;;;;;;14.76;100.00;102074.66;5262010;28;20037;-68
2023/05/20 07:30:02;;;;;;;8.32;3.28;;;;;;;14.90;100.00;102062.88;5269744;28;20403;-68
2023/05/20 07:32:33;;;;;;;8.07;3.20;;;;;;;14.99;100.00;102072.91;5275765;28;20455;-68
2023/05/20 07:35:04;;;;;;;5.60;3.15;;;;;;;15.06;100.00;102062.56;5263062;28;20032;-69
2023/05/20 07:37:36;;;;;;;7.15;3.35;;;;;;;15.14;100.00;102064.69;5271254;28;20055;-68
2023/05/20 07:40:08;;;;;;;7.78;3.42;;;;;;;15.25;100.00;102057.50;5270922;28;20040;-68
2023/05/20 07:42:39;;;;;;;6.80;3.53;;;;;;;15.34;100.00;102061.31;5271247;28;20024;-68
2023/05/20 07:45:11;;;;;;;5.85;3.28;;;;;;;15.57;100.00;102062.22;5272280;28;20432;-68
2023/05/20 07:47:42;;;;;;;6.15;3.13;;;;;;;15.59;100.00;102054.88;5267839;28;20110;-68
2023/05/20 07:50:13;;;;;;;6.72;3.20;;;;;;;15.60;100.00;102051.19;5258451;28;20047;-68
2023/05/20 07:52:45;;;;;;;7.20;3.15;;;;;;;15.83;100.00;102056.63;5271254;28;20034;-68
2023/05/20 07:55:17;;;;;;;5.72;3.38;;;;;;;15.86;100.00;102051.00;5267523;28;20024;-68
2023/05/20 07:57:48;;;;;;;6.07;3.13;;;;;;;15.98;100.00;102046.47;5265104;28;20021;-68
2023/05/20 08:00:20;;;;;;;6.28;2.90;;;;;;;16.04;100.00;102048.66;5265756;28;20483;-68
2023/05/20 08:02:51;;;;;;;4.93;2.92;;;;;;;16.04;100.00;102049.53;5262875;28;20036;-68
2023/05/20 08:05:22;;;;;;;6.43;3.17;;;;;;;16.12;100.00;102050.75;5271750;28;20036;-68
2023/05/20 08:07:54;;;;;;;5.45;3.10;;;;;;;16.18;100.00;102056.47;5273226;28;20119;-68
2023/05/20 08:10:25;;;;;;;7.03;2.97;;;;;;;16.27;100.00;102057.56;5269198;28;20029;-68
2023/05/20 08:12:57;;;;;;;5.65;3.50;;;;;;;16.21;100.00;102032.00;5266517;28;20378;-68
2023/05/20 08:15:28;;;;;;;6.85;3.35;;;;;;;16.32;100.00;102030.25;5270849;28;20442;-68
2023/05/20 08:17:59;;;;;;;6.35;3.10;;;;;;;16.41;100.00;102030.34;5272212;28;20432;-68
2023/05/20 08:20:31;;;;;;;7.45;3.13;;;;;;;16.53;100.00;102035.72;5270553;28;20020;-68
2023/05/20 08:23:02;;;;;;;6.53;2.90;;;;;;;16.51;100.00;102040.38;5282147;28;20486;-68
2023/05/20 08:25:33;;;;;;;4.68;2.90;;;;;;;16.62;100.00;102043.88;5274608;28;20471;-68
2023/05/20 08:28:05;;;;;;;4.20;2.88;;;;;;;16.75;100.00;102045.56;5278604;28;20039;-70
2023/05/20 08:30:37;;;;;;;9.07;3.38;;;;;;;16.83;100.00;102035.03;5269809;28;20111;-68
2023/05/20 08:33:08;;;;;;;5.97;2.80;;;;;;;16.81;100.00;102026.19;5283058;28;20028;-68
2023/05/20 08:35:40;;;;;;;5.78;2.88;;;;;;;16.92;100.00;102022.63;5278190;28;20024;-68
2023/05/20 08:38:11;;;;;;;7.95;3.15;;;;;;;16.90;100.00;102028.16;5271986;28;20049;-68
2023/05/20 08:40:43;;;;;;;5.40;3.00;;;;;;;17.11;100.00;102019.22;5269470;28;20051;-68
2023/05/20 08:43:14;;;;;;;5.50;2.55;;;;;;;17.00;100.00;102012.88;5273844;28;20033;-68
2023/05/20 08:45:45;;;;;;;9.85;3.22;;;;;;;17.13;100.00;102020.78;5267972;28;20155;-69
2023/05/20 08:48:18;;;;;;;7.43;3.00;;;;;;;17.20;100.00;102016.59;5274165;28;20032;-68
2023/05/20 08:50:51;;;;;;;6.97;3.10;;;;;;;17.29;100.00;102019.47;5277721;28;20051;-68
2023/05/20 08:53:23;;;;;;;5.35;2.92;;;;;;;17.36;100.00;102028.75;5283597;28;20028;-68
2023/05/20 08:55:59;;;;;;;6.25;3.03;;;;;;;17.42;100.00;102020.13;5303938;28;20024;-68
2023/05/20 08:58:31;;;;;;;7.15;3.50;;;;;;;17.48;100.00;102016.03;5268163;28;20025;-68
2023/05/20 09:01:03;;;;;;;5.70;3.10;;;;;;;17.48;100.00;102019.56;5277103;28;20052;-68
2023/05/20 09:03:35;;;;;;;8.15;3.20;;;;;;;17.55;100.00;102014.50;5271228;28;20401;-68
2023/05/20 09:06:07;;;;;;;7.95;3.30;;;;;;;17.63;100.00;102017.38;5286642;28;20056;-68
2023/05/20 09:08:39;;;;;;;7.55;3.25;;;;;;;17.69;100.00;102014.13;5313997;28;20031;-68
2023/05/20 09:11:11;;;;;;;5.90;3.00;;;;;;;17.74;100.00;102000.25;5312611;28;20035;-68
2023/05/20 09:13:42;;;;;;;4.65;2.90;;;;;;;17.79;100.00;102006.91;5311684;28;20038;-68
2023/05/20 09:16:14;;;;;;;4.88;2.72;;;;;;;17.85;100.00;102007.41;5313107;27;20031;-68
2023/05/20 09:18:45;;;;;;;6.45;3.20;;;;;;;17.94;100.00;102003.91;5315579;27;20031;-68
2023/05/20 09:21:17;;;;;;;5.72;2.67;;;;;;;18.01;100.00;102003.22;5314376;27;20035;-68
2023/05/20 09:23:48;;;;;;;5.32;2.47;;;;;;;18.23;100.00;101994.00;5313366;27;20024;-68
2023/05/20 09:26:20;;;;;;;5.00;2.83;;;;;;;18.21;100.00;101990.59;5310380;27;20036;-69
2023/05/20 09:28:52;;;;;;;8.68;2.97;;;;;;;18.30;100.00;101985.38;5315920;27;20047;-68
2023/05/20 09:31:29;;;;;;;5.32;2.30;;;;;;;18.37;100.00;101990.06;5312399;28;20073;-68
2023/05/20 09:34:00;;;;;;;5.88;3.35;;;;;;;18.48;100.00;101986.34;5324295;27;20062;-68
2023/05/20 09:36:34;;;;;;;5.18;2.70;;;;;;;18.64;100.00;101988.53;5328128;27;20116;-68
2023/05/20 09:39:08;;;;;;;7.10;2.88;;;;;;;18.64;100.00;101984.94;5308724;27;20039;-68
2023/05/20 09:42:04;;;;;;;4.88;2.70;;;;;;;18.70;100.00;101989.81;5313056;27;20019;-68
2023/05/20 09:44:37;;;;;;;10.93;2.80;;;;;;;18.79;100.00;101987.09;5314518;27;20046;-68
2023/05/20 09:47:09;;;;;;;8.40;3.30;;;;;;;18.71;100.00;102002.31;5314115;28;20023;-68
2023/05/20 09:49:41;;;;;;;4.75;2.75;;;;;;;18.73;100.00;101989.50;5317743;28;20359;-68
2023/05/20 09:52:14;;;;;;;6.65;2.80;;;;;;;18.94;100.00;102000.19;5319020;27;20035;-68
2023/05/20 09:54:47;;;;;;;5.93;2.83;;;;;;;18.97;100.00;101995.34;5310431;28;20054;-68
2023/05/20 09:57:19;;;;;;;6.20;2.75;;;;;;;18.88;100.00;101993.50;5312460;28;20143;-68
2023/05/20 09:59:51;;;;;;;7.80;3.30;;;;;;;18.96;100.00;102001.75;5316102;28;20098;-68
2023/05/20 10:02:22;;;;;;;4.63;3.10;;;;;;;18.99;100.00;101987.09;5305957;28;20050;-68
2023/05/20 10:04:56;;;;;;;8.15;3.28;;;;;;;18.97;99.98;101986.38;5317450;28;20035;-68
2023/05/20 10:08:06;;;;;;;7.90;3.83;;;;;;;19.02;100.00;101980.53;5268221;28;20059;-68
2023/05/20 10:10:56;;;;;;;6.63;2.88;;;;;;;18.84;100.00;101975.03;5267716;28;20032;-68
2023/05/20 10:13:59;;;;;;;6.88;2.90;;;;;;;18.84;100.00;101973.16;5272213;28;20033;-68
2023/05/20 10:17:00;;;;;;;6.95;2.85;;;;;;;18.80;100.00;101966.34;5243655;28;20106;-68
2023/05/20 10:19:34;;;;;;;4.95;2.75;;;;;;;18.86;100.00;101963.03;5274848;28;20047;-68
2023/05/20 10:22:07;;;;;;;5.20;2.90;;;;;;;18.85;97.47;101968.59;5274601;28;20032;-68
2023/05/20 10:24:41;;;;;;;6.90;2.80;;;;;;;18.83;99.25;101959.78;5280198;28;20034;-68
2023/05/20 10:27:14;;;;;;;9.73;3.28;;;;;;;18.90;98.59;101952.78;5264908;28;20029;-68
2023/05/20 10:29:54;;;;;;;8.95;2.90;;;;;;;18.97;100.00;101949.38;5283586;28;20017;-68
2023/05/20 10:32:31;;;;;;;6.80;2.80;;;;;;;19.00;100.00;101962.63;5265342;28;20615;-68
2023/05/20 10:35:07;;;;;;;3.30;2.15;;;;;;;19.08;100.00;101945.66;5269697;28;20028;-68
2023/05/20 10:37:41;;;;;;;4.95;2.50;;;;;;;19.02;96.92;101942.66;5269353;28;20048;-68
2023/05/20 10:40:14;;;;;;;7.05;2.60;;;;;;;19.07;96.63;101937.69;5274589;28;20437;-68
2023/05/20 10:42:47;;;;;;;4.43;2.63;;;;;;;18.95;96.80;101939.69;5265327;28;20112;-68
2023/05/20 10:45:26;;;;;;;4.43;2.30;;;;;;;18.98;100.00;101934.84;5266641;28;20513;-68
2023/05/20 10:47:58;;;;;;;6.03;2.42;;;;;;;19.03;98.12;101931.69;5280153;28;20052;-68
2023/05/20 10:50:37;;;;;;;6.18;2.38;;;;;;;19.16;98.23;101943.06;5278201;28;20483;-68
2023/05/20 10:53:13;;;;;;;5.07;2.42;;;;;;;19.26;100.00;101937.63;5269907;28;20534;-68
2023/05/20 10:55:50;;;;;;;5.85;2.45;;;;;;;19.34;100.00;101937.72;5259000;28;20114;-68
2023/05/20 10:58:23;;;;;;;7.28;2.55;;;;;;;19.38;96.92;101936.41;5271213;28;20118;-68
2023/05/20 11:00:55;;;;;;;4.82;2.70;;;;;;;19.42;98.37;101926.16;5265003;28;20037;-68
2023/05/20 11:03:28;;;;;;;5.18;2.63;;;;;;;19.43;99.67;101921.63;5281394;28;20424;-68
2023/05/20 11:06:00;;;;;;;4.55;2.50;;;;;;;19.49;96.43;101926.41;5285005;27;20404;-68
2023/05/20 11:08:31;;;;;;;3.58;2.25;;;;;;;19.64;97.09;101916.78;5309662;27;20028;-68
2023/05/20 11:11:02;;;;;;;5.25;2.40;;;;;;;19.63;97.63;101915.06;5307148;27;20016;-68
2023/05/20 11:13:34;;;;;;;5.60;2.60;;;;;;;19.74;95.64;101920.31;5306325;28;20471;-68
2023/05/20 11:16:06;;;;;;;4.70;2.58;;;;;;;19.93;96.40;101911.22;5323054;27;20020;-68
2023/05/20 11:18:37;;;;;;;4.72;2.42;;;;;;;19.98;95.09;101916.19;5319193;27;20019;-68
2023/05/20 11:21:09;;;;;;;6.00;2.58;;;;;;;20.07;96.02;101911.72;5311723;28;20031;-68
2023/05/20 11:23:41;;;;;;;5.50;2.08;;;;;;;20.11;98.48;101915.81;5307419;28;20052;-68
2023/05/20 11:26:12;;;;;;;5.97;2.95;;;;;;;20.22;97.70;101914.75;5328122;27;20036;-68
2023/05/20 11:28:44;;;;;;;5.95;2.65;;;;;;;20.22;93.62;101902.03;5324656;27;20019;-68
2023/05/20 11:31:17;;;;;;;7.30;3.03;;;;;;;20.24;95.35;101915.44;5317005;27;20553;-68
2023/05/20 11:33:49;;;;;;;5.55;2.65;;;;;;;20.31;92.35;101898.41;5305986;28;20447;-68
2023/05/20 11:36:21;;;;;;;4.65;2.40;;;;;;;20.36;98.51;101900.63;5329034;27;20385;-68
2023/05/20 11:38:52;;;;;;;4.15;2.45;;;;;;;20.49;97.93;101900.25;5308369;27;20077;-68
2023/05/20 11:41:25;;;;;;;6.07;2.53;;;;;;;20.43;91.67;101895.44;5311338;27;20101;-68